Time;durP1;ratioP1;P1;durP2;ratioP2;P2;SDS_P1;SDS_P2;PMS_P1;PMS_P2;Temp;Humidity;BMP_temperature;BMP_pressure;BME280_temperature;BME280_humidity;BME280_pressure;Samples;Min_cycle;Max_cycle;Signal;HPM_P1;HPM_P2
2023/03/31 00:02:13;;;;;;;3.00;2.17;;;;;;;8.27;nan;-24047.94;5031337;28;20187;-72
2023/03/31 00:04:44;;;;;;;2.53;2.33;;;;;;;8.72;nan;-24060.56;5031489;28;20183;-73
2023/03/31 00:07:12;;;;;;;2.87;2.27;;;;;;;8.56;nan;-24056.03;5031641;28;20174;-72
2023/03/31 00:09:39;;;;;;;2.30;2.10;;;;;;;8.33;nan;-24049.78;5031631;28;20211;-74
2023/03/31 00:12:05;;;;;;;5.40;2.50;;;;;;;8.28;nan;-24048.22;5031216;28;20639;-71
2023/03/31 00:14:30;;;;;;;4.37;2.40;;;;;;;8.40;nan;-24051.63;5031397;28;20171;-73
2023/03/31 00:16:57;;;;;;;3.70;2.53;;;;;;;8.04;nan;-24041.56;5031360;28;20175;-72
2023/03/31 00:19:22;;;;;;;4.57;2.50;;;;;;;7.89;nan;-24037.31;5031608;28;20187;-74
2023/03/31 00:21:50;;;;;;;4.03;2.63;;;;;;;8.19;nan;-24045.69;5031702;28;20160;-70
2023/03/31 00:24:16;;;;;;;2.63;2.20;;;;;;;8.16;nan;-24044.97;5031396;28;20175;-70
2023/03/31 00:26:43;;;;;;;5.60;2.30;;;;;;;7.87;nan;-24036.75;5031098;28;20202;-74
2023/03/31 00:29:10;;;;;;;3.43;2.50;;;;;;;7.85;nan;-24036.19;5031148;28;20627;-74
2023/03/31 00:31:37;;;;;;;3.23;2.27;;;;;;;7.86;nan;-24036.63;5031578;28;20636;-74
2023/03/31 00:34:03;;;;;;;4.40;2.20;;;;;;;8.13;nan;-24044.13;5029145;28;20183;-69
2023/03/31 00:36:29;;;;;;;3.07;2.37;;;;;;;7.85;nan;-24036.19;5031097;28;20630;-73
2023/03/31 00:39:07;;;;;;;3.27;2.50;;;;;;;8.05;nan;-24041.84;5030759;28;20199;-70
2023/03/31 00:41:35;;;;;;;2.80;2.40;;;;;;;7.99;nan;-24040.16;5030825;28;20206;-72
2023/03/31 00:44:12;;;;;;;2.20;1.90;;;;;;;7.92;nan;-24038.31;5031023;28;20670;-72
2023/03/31 00:46:51;;;;;;;3.20;2.10;;;;;;;7.89;nan;-24037.47;5032522;28;20174;-74
2023/03/31 00:49:33;;;;;;;2.53;2.33;;;;;;;7.84;nan;-24036.06;5035329;28;20623;-69
2023/03/31 00:52:07;;;;;;;4.30;2.30;;;;;;;7.32;nan;-24021.31;5034707;28;20186;-69
2023/03/31 00:54:35;;;;;;;5.57;2.83;;;;;;;7.64;nan;-24030.38;5035320;28;20174;-72
2023/03/31 01:03:45;;;;;;;3.27;2.40;;;;;;;7.43;nan;-24024.44;5034068;28;20214;-70
2023/03/31 01:06:13;;;;;;;3.20;2.40;;;;;;;7.37;nan;-24022.88;5034412;28;20218;-74
2023/03/31 01:08:40;;;;;;;2.80;2.30;;;;;;;7.38;nan;-24023.00;5032277;28;20274;-70
2023/03/31 01:11:08;;;;;;;3.20;2.20;;;;;;;7.33;nan;-24021.59;5031469;28;20269;-69
2023/03/31 01:13:37;;;;;;;3.17;2.30;;;;;;;7.54;nan;-24027.69;5034796;28;20219;-73
2023/03/31 01:16:10;;;;;;;2.33;2.13;;;;;;;7.48;nan;-24025.84;5034567;28;20182;-70
2023/03/31 01:18:36;;;;;;;3.83;2.60;;;;;;;7.36;nan;-24022.44;5034231;28;20205;-72
2023/03/31 01:21:14;;;;;;;5.20;2.70;;;;;;;7.52;nan;-24026.97;5034216;28;20187;-70
2023/03/31 01:24:04;;;;;;;6.63;2.53;;;;;;;7.46;nan;-24025.28;5034930;28;20646;-75
2023/03/31 01:26:52;;;;;;;2.80;2.27;;;;;;;7.48;nan;-24025.84;5017310;28;20179;-71
2023/03/31 01:29:59;;;;;;;3.57;2.03;;;;;;;7.42;nan;-24024.16;5017268;28;20231;-71
2023/03/31 01:33:02;;;;;;;3.40;2.43;;;;;;;7.33;nan;-24021.75;5016019;28;20176;-74
2023/03/31 01:35:49;;;;;;;3.93;2.50;;;;;;;7.27;nan;-24019.91;5014278;28;20221;-69
2023/03/31 01:38:48;;;;;;;3.10;2.03;;;;;;;7.25;nan;-24019.34;5013644;28;20212;-71
2023/03/31 01:41:33;;;;;;;4.50;2.30;;;;;;;7.25;nan;-24019.47;5011559;28;20191;-71
2023/03/31 01:44:14;;;;;;;3.23;2.20;;;;;;;6.87;nan;-24008.84;5012803;28;20283;-71
2023/03/31 01:46:50;;;;;;;2.63;1.97;;;;;;;7.10;nan;-24015.34;5014550;28;20164;-71
2023/03/31 01:49:20;;;;;;;4.10;2.30;;;;;;;7.01;nan;-24012.81;5014178;28;20547;-69
2023/03/31 01:51:59;;;;;;;3.90;2.90;;;;;;;6.63;nan;-24002.03;5013962;28;20186;-70
2023/03/31 01:54:39;;;;;;;5.60;2.53;;;;;;;7.02;nan;-24013.09;5014056;28;20314;-73
2023/03/31 01:57:11;;;;;;;4.80;2.97;;;;;;;6.59;nan;-24000.88;5012635;28;20231;-73
2023/03/31 01:59:56;;;;;;;3.43;2.23;;;;;;;6.56;nan;-24000.03;5012878;28;20204;-70
2023/03/31 02:02:31;;;;;;;5.47;2.83;;;;;;;6.48;nan;-23997.75;5013841;28;20255;-73
2023/03/31 02:05:02;;;;;;;2.80;2.50;;;;;;;6.80;nan;-24006.84;5013625;28;20542;-69
2023/03/31 02:07:38;;;;;;;2.67;2.40;;;;;;;6.37;nan;-23994.78;5013763;28;20171;-73
2023/03/31 02:10:08;;;;;;;4.10;2.47;;;;;;;6.71;nan;-24004.28;5013838;28;20172;-74
2023/03/31 02:12:37;;;;;;;4.03;2.50;;;;;;;6.53;nan;-23999.31;5013412;28;20171;-71
2023/03/31 02:15:06;;;;;;;4.70;2.43;;;;;;;6.45;nan;-23996.91;5013505;28;20230;-71
2023/03/31 02:17:32;;;;;;;4.13;2.50;;;;;;;6.52;nan;-23998.91;5012950;28;20180;-73
2023/03/31 02:20:06;;;;;;;4.53;2.47;;;;;;;6.19;nan;-23989.81;5013434;28;20173;-69
2023/03/31 02:22:36;;;;;;;3.27;2.30;;;;;;;6.36;nan;-23994.50;5028879;28;20197;-69
2023/03/31 02:25:08;;;;;;;4.00;2.70;;;;;;;6.52;nan;-23999.03;5016104;28;20165;-71
2023/03/31 02:27:42;;;;;;;5.23;2.80;;;;;;;6.31;nan;-23992.94;5033486;28;20505;-72
2023/03/31 02:30:09;;;;;;;3.67;2.30;;;;;;;6.38;nan;-23995.06;5032043;28;20194;-68
2023/03/31 02:32:40;;;;;;;2.30;2.10;;;;;;;6.10;nan;-23987.13;5033151;28;20248;-70
2023/03/31 02:35:10;;;;;;;3.40;2.50;;;;;;;6.10;nan;-23987.13;5033363;28;20267;-71
2023/03/31 02:37:37;;;;;;;3.63;2.70;;;;;;;6.34;nan;-23993.94;5032890;28;20178;-74
2023/03/31 02:40:19;;;;;;;4.23;3.00;;;;;;;6.38;nan;-23994.94;5033089;28;20631;-71
2023/03/31 02:42:45;;;;;;;3.43;2.70;;;;;;;6.41;nan;-23995.91;5033144;28;20179;-72
2023/03/31 02:45:38;;;;;;;4.37;2.93;;;;;;;6.34;nan;-23993.94;5031577;28;20654;-72
2023/03/31 02:48:08;;;;;;;3.67;2.90;;;;;;;6.43;nan;-23996.34;5032714;28;20175;-74
2023/03/31 02:51:00;;;;;;;3.67;2.60;;;;;;;6.30;nan;-23992.78;5030995;28;20190;-70
2023/03/31 02:53:28;;;;;;;2.73;2.07;;;;;;;6.55;nan;-23999.75;5032906;28;20171;-70
2023/03/31 02:56:11;;;;;;;2.20;2.00;;;;;;;6.63;nan;-24002.16;5031854;28;20657;-73
2023/03/31 02:58:54;;;;;;;3.43;2.13;;;;;;;6.25;nan;-23991.22;5031757;28;20253;-72
2023/03/31 03:01:57;;;;;;;5.53;2.87;;;;;;;6.61;nan;-24001.47;5031873;28;20599;-71
2023/03/31 03:04:38;;;;;;;4.60;2.70;;;;;;;6.26;nan;-23991.53;5026145;28;20187;-74
2023/03/31 03:07:06;;;;;;;3.20;2.70;;;;;;;6.62;nan;-24001.88;5032370;28;20179;-73
2023/03/31 03:09:42;;;;;;;3.53;2.87;;;;;;;6.67;nan;-24003.16;5032180;28;20179;-72
2023/03/31 03:12:16;;;;;;;4.70;3.13;;;;;;;6.77;nan;-24006.00;5032420;28;20650;-70
2023/03/31 03:15:17;;;;;;;4.23;3.00;;;;;;;6.59;nan;-24000.88;5032582;28;20205;-71
2023/03/31 03:17:45;;;;;;;3.20;2.23;;;;;;;6.38;nan;-23995.06;5029931;28;20550;-73
2023/03/31 03:20:13;;;;;;;9.67;2.60;;;;;;;6.39;nan;-23995.22;5032238;28;20673;-72
2023/03/31 03:22:39;;;;;;;5.27;3.10;;;;;;;6.48;nan;-23997.91;5032256;28;20647;-70
2023/03/31 03:25:10;;;;;;;6.27;3.43;;;;;;;6.33;nan;-23993.50;5031641;28;20179;-70
2023/03/31 03:27:37;;;;;;;6.00;4.00;;;;;;;6.29;nan;-23992.38;5030650;28;20183;-75
2023/03/31 03:30:04;;;;;;;6.53;3.33;;;;;;;6.21;nan;-23990.38;5031889;28;20208;-74
2023/03/31 03:32:30;;;;;;;4.20;2.80;;;;;;;6.19;nan;-23989.81;5031811;28;20273;-69
2023/03/31 03:34:55;;;;;;;5.47;3.40;;;;;;;6.29;nan;-23992.50;5031923;28;20198;-71
2023/03/31 03:37:21;;;;;;;3.57;2.70;;;;;;;6.30;nan;-23992.66;5029828;28;20187;-71
2023/03/31 03:39:46;;;;;;;4.13;2.60;;;;;;;6.19;nan;-23989.69;5031599;28;20236;-73
2023/03/31 03:42:12;;;;;;;10.93;3.40;;;;;;;6.16;nan;-23988.81;5031626;28;20190;-70
2023/03/31 03:44:37;;;;;;;4.10;2.83;;;;;;;6.09;nan;-23986.84;5031690;28;20234;-72
2023/03/31 03:47:03;;;;;;;7.83;2.80;;;;;;;5.91;nan;-23981.88;5031150;28;20195;-73
2023/03/31 03:49:28;;;;;;;6.37;3.17;;;;;;;6.05;nan;-23985.84;5031607;28;20281;-72
2023/03/31 03:51:53;;;;;;;6.47;3.27;;;;;;;5.87;nan;-23980.72;5031333;28;20258;-71
2023/03/31 03:54:19;;;;;;;5.27;2.60;;;;;;;5.86;nan;-23980.28;5031611;28;20229;-70
2023/03/31 03:56:44;;;;;;;4.17;2.90;;;;;;;6.03;nan;-23985.28;5031265;28;20218;-72
2023/03/31 03:59:10;;;;;;;4.43;2.80;;;;;;;5.99;nan;-23984.00;5031459;28;20653;-74
2023/03/31 04:01:36;;;;;;;5.90;3.53;;;;;;;5.96;nan;-23983.28;5031309;28;20187;-71
2023/03/31 04:04:02;;;;;;;3.50;3.07;;;;;;;6.21;nan;-23990.25;5031255;28;20187;-71
2023/03/31 04:06:28;;;;;;;3.67;2.80;;;;;;;5.81;nan;-23979.00;5030243;28;20612;-71
2023/03/31 04:08:53;;;;;;;5.17;2.53;;;;;;;5.77;nan;-23977.88;5031312;28;20174;-70
2023/03/31 04:11:19;;;;;;;4.37;2.67;;;;;;;5.86;nan;-23980.44;5032188;28;20182;-72
2023/03/31 04:13:45;;;;;;;6.60;2.80;;;;;;;5.75;nan;-23977.44;5030365;28;20274;-72
2023/03/31 04:16:11;;;;;;;5.60;3.13;;;;;;;6.02;nan;-23984.84;5031272;28;20266;-75
2023/03/31 04:18:41;;;;;;;5.07;3.37;;;;;;;5.94;nan;-23982.72;5030277;28;20206;-72
2023/03/31 04:21:21;;;;;;;3.57;2.67;;;;;;;5.72;nan;-23976.47;5030836;28;20663;-72
2023/03/31 04:23:48;;;;;;;4.40;3.27;;;;;;;5.97;nan;-23983.56;5030727;28;20167;-72
2023/03/31 04:26:16;;;;;;;5.90;3.63;;;;;;;5.68;nan;-23975.47;5030993;28;20168;-69
2023/03/31 04:28:45;;;;;;;4.87;3.20;;;;;;;5.99;nan;-23984.00;5030991;28;20179;-71
2023/03/31 04:31:15;;;;;;;6.20;3.83;;;;;;;6.19;nan;-23989.69;5031767;28;20226;-71
2023/03/31 04:33:44;;;;;;;3.97;3.30;;;;;;;5.83;nan;-23979.59;5031554;28;20526;-70
2023/03/31 04:36:16;;;;;;;6.40;4.10;;;;;;;6.19;nan;-23989.81;5031335;28;20174;-73
2023/03/31 04:38:45;;;;;;;5.87;4.17;;;;;;;6.04;nan;-23985.56;5029459;28;20186;-71
2023/03/31 04:41:12;;;;;;;6.83;4.27;;;;;;;6.41;nan;-23995.78;5030444;28;20230;-72
2023/03/31 04:43:38;;;;;;;5.67;3.53;;;;;;;6.44;nan;-23996.63;5030596;28;20171;-69
2023/03/31 04:46:03;;;;;;;6.13;3.90;;;;;;;6.51;nan;-23998.63;5030719;28;20172;-74
2023/03/31 04:48:29;;;;;;;9.27;4.87;;;;;;;6.34;nan;-23993.94;5030829;28;20238;-72
2023/03/31 04:50:54;;;;;;;9.63;4.60;;;;;;;6.16;nan;-23988.97;5030493;28;20250;-71
2023/03/31 04:53:19;;;;;;;6.17;4.00;;;;;;;6.68;nan;-24003.31;5029801;28;20179;-71
2023/03/31 04:55:45;;;;;;;7.63;4.53;;;;;;;6.96;nan;-24011.25;5029816;28;20683;-70
2023/03/31 04:58:10;;;;;;;8.43;4.70;;;;;;;7.00;nan;-24012.53;5030757;28;20211;-72
2023/03/31 05:00:36;;;;;;;6.13;4.23;;;;;;;6.93;nan;-24010.41;5030052;28;20218;-75
2023/03/31 05:03:02;;;;;;;8.47;4.53;;;;;;;7.20;nan;-24017.91;5030086;28;20179;-72
2023/03/31 05:05:27;;;;;;;6.93;4.40;;;;;;;7.32;nan;-24021.47;5030035;28;20194;-71
2023/03/31 05:07:52;;;;;;;7.03;4.50;;;;;;;7.26;nan;-24019.63;5030734;28;20651;-75
2023/03/31 05:10:18;;;;;;;8.30;4.77;;;;;;;7.17;nan;-24017.06;5030113;28;20179;-74
2023/03/31 05:12:43;;;;;;;8.77;4.27;;;;;;;7.30;nan;-24020.75;5031214;28;20210;-72
2023/03/31 05:15:09;;;;;;;7.43;4.43;;;;;;;7.39;nan;-24023.31;5030703;28;20537;-72
2023/03/31 05:17:35;;;;;;;9.47;4.40;;;;;;;7.22;nan;-24018.47;5029195;28;20264;-71
2023/03/31 05:20:00;;;;;;;9.13;3.63;;;;;;;7.58;nan;-24028.53;5030750;28;20651;-71
2023/03/31 05:22:27;;;;;;;8.33;4.30;;;;;;;7.48;nan;-24025.84;5030372;28;20560;-76
2023/03/31 05:24:52;;;;;;;5.03;3.83;;;;;;;7.63;nan;-24029.97;5028974;28;20184;-72
2023/03/31 05:27:20;;;;;;;9.33;4.90;;;;;;;7.36;nan;-24022.59;5030561;28;20176;-73
2023/03/31 05:29:46;;;;;;;5.87;3.80;;;;;;;7.26;nan;-24019.75;5029518;28;20596;-75
2023/03/31 05:32:11;;;;;;;7.33;4.07;;;;;;;7.46;nan;-24025.44;5030111;28;20175;-73
2023/03/31 05:34:37;;;;;;;16.63;4.83;;;;;;;7.80;nan;-24034.78;5032677;28;20180;-72
2023/03/31 05:37:02;;;;;;;6.57;4.10;;;;;;;7.68;nan;-24031.53;5032424;28;20245;-73
2023/03/31 05:39:31;;;;;;;10.00;4.53;;;;;;;7.99;nan;-24040.31;5013391;28;20227;-71
2023/03/31 05:41:58;;;;;;;6.97;4.73;;;;;;;7.92;nan;-24038.31;5013962;28;20187;-70
2023/03/31 05:44:23;;;;;;;4.97;3.50;;;;;;;7.88;nan;-24037.03;5013979;28;20173;-74
2023/03/31 05:46:49;;;;;;;12.20;4.60;;;;;;;7.83;nan;-24035.63;5013636;28;20624;-73
2023/03/31 05:49:15;;;;;;;6.63;3.50;;;;;;;8.05;nan;-24041.72;5013688;28;20195;-71
2023/03/31 05:51:41;;;;;;;7.27;4.40;;;;;;;7.83;nan;-24035.78;5012859;28;20172;-70
2023/03/31 05:54:06;;;;;;;6.80;4.00;;;;;;;8.00;nan;-24040.44;5021499;28;20179;-72
2023/03/31 05:56:32;;;;;;;6.23;4.03;;;;;;;8.21;nan;-24046.25;5033602;28;20297;-73
2023/03/31 05:59:00;;;;;;;8.43;4.40;;;;;;;7.98;nan;-24039.88;5032701;28;20214;-71
2023/03/31 06:01:25;;;;;;;7.67;4.97;;;;;;;8.20;nan;-24046.09;5032741;28;20187;-74
2023/03/31 06:03:51;;;;;;;6.37;4.30;;;;;;;8.33;nan;-24049.78;5033624;28;20198;-73
2023/03/31 06:06:17;;;;;;;6.77;4.20;;;;;;;8.33;nan;-24049.66;5033409;28;20221;-72
2023/03/31 06:08:44;;;;;;;5.33;4.07;;;;;;;8.44;nan;-24052.78;5033343;28;20561;-68
2023/03/31 06:11:12;;;;;;;7.03;3.87;;;;;;;8.42;nan;-24052.19;5033741;28;20177;-70
2023/03/31 06:13:38;;;;;;;5.60;4.03;;;;;;;8.51;nan;-24054.59;5033373;28;20175;-69
2023/03/31 06:16:04;;;;;;;6.13;3.97;;;;;;;8.73;nan;-24060.97;5033858;28;20718;-72
2023/03/31 06:18:31;;;;;;;5.70;3.80;;;;;;;8.76;nan;-24061.69;5033053;28;20658;-72
2023/03/31 06:20:57;;;;;;;7.17;4.53;;;;;;;8.58;nan;-24056.72;5033279;28;20204;-69
2023/03/31 06:23:24;;;;;;;8.50;4.30;;;;;;;8.93;nan;-24066.34;5033399;28;20247;-71
2023/03/31 06:25:50;;;;;;;8.73;4.17;;;;;;;8.62;nan;-24057.88;5033014;28;20563;-69
2023/03/31 06:28:15;;;;;;;13.97;4.60;;;;;;;9.27;nan;-24076.09;5033117;28;20179;-70
2023/03/31 06:30:41;;;;;;;10.97;4.23;;;;;;;8.83;nan;-24063.81;5033364;28;20175;-69
2023/03/31 06:33:06;;;;;;;7.67;4.13;;;;;;;8.79;nan;-24062.66;5032616;28;20187;-73
2023/03/31 06:35:32;;;;;;;5.83;3.87;;;;;;;8.69;nan;-24059.69;5032220;28;20190;-71
2023/03/31 06:37:58;;;;;;;7.50;3.93;;;;;;;8.92;nan;-24066.06;5032231;28;20204;-70
2023/03/31 06:40:23;;;;;;;9.17;4.43;;;;;;;8.42;nan;-24052.19;5031943;28;20565;-71
2023/03/31 06:42:49;;;;;;;8.60;4.53;;;;;;;9.11;nan;-24071.59;5030089;28;20713;-70
2023/03/31 06:45:14;;;;;;;12.50;7.93;;;;;;;8.91;nan;-24065.78;5031557;28;20186;-72
2023/03/31 06:47:40;;;;;;;9.60;5.63;;;;;;;9.27;nan;-24076.09;5031487;28;20223;-72
2023/03/31 06:50:08;;;;;;;14.60;7.03;;;;;;;9.41;nan;-24079.91;5026401;28;20693;-71
2023/03/31 06:52:34;;;;;;;7.83;5.40;;;;;;;9.81;nan;-24091.09;5031147;28;20183;-71
2023/03/31 06:54:59;;;;;;;9.03;5.53;;;;;;;9.24;nan;-24075.13;5031495;28;20548;-71
2023/03/31 06:57:30;;;;;;;9.17;5.17;;;;;;;9.57;nan;-24084.44;5032726;28;20238;-73
2023/03/31 06:59:55;;;;;;;10.87;5.30;;;;;;;9.31;nan;-24077.25;5029772;28;20257;-73
2023/03/31 07:02:21;;;;;;;11.70;6.60;;;;;;;9.08;nan;-24070.59;5031913;28;20568;-74
2023/03/31 07:04:46;;;;;;;17.93;6.40;;;;;;;9.58;nan;-24084.59;5031696;28;20219;-73
2023/03/31 07:07:12;;;;;;;13.27;5.93;;;;;;;9.75;nan;-24089.53;5030828;28;20650;-71
2023/03/31 07:09:37;;;;;;;9.63;5.90;;;;;;;9.83;nan;-24091.50;5032869;28;20681;-69
2023/03/31 07:12:06;;;;;;;13.70;4.83;;;;;;;10.07;nan;-24098.28;5029226;28;20207;-71
2023/03/31 07:14:31;;;;;;;8.33;4.73;;;;;;;10.30;nan;-24104.78;5025905;28;20183;-72
2023/03/31 07:16:57;;;;;;;13.20;5.37;;;;;;;11.26;nan;-24131.59;5030939;28;20181;-71
2023/03/31 07:19:22;;;;;;;9.48;4.57;;;;;;;11.82;nan;-24147.09;5030129;28;20199;-71
2023/03/31 07:21:48;;;;;;;12.43;5.85;;;;;;;11.74;nan;-24144.84;5030857;28;20568;-71
2023/03/31 07:24:13;;;;;;;13.77;6.65;;;;;;;11.95;nan;-24150.88;5030704;28;20179;-69
2023/03/31 07:26:39;;;;;;;15.77;8.10;;;;;;;11.32;nan;-24133.28;5030889;28;20701;-74
2023/03/31 07:29:04;;;;;;;13.10;6.63;;;;;;;11.50;nan;-24138.22;5030691;28;20180;-71
2023/03/31 07:31:30;;;;;;;10.02;5.38;;;;;;;11.84;nan;-24147.78;5029393;28;20670;-73
2023/03/31 07:33:55;;;;;;;17.08;6.72;;;;;;;11.93;nan;-24150.31;5030190;28;20658;-69
2023/03/31 07:36:21;;;;;;;12.25;5.40;;;;;;;12.05;nan;-24153.56;5030011;28;20577;-72
2023/03/31 07:38:48;;;;;;;11.45;6.32;;;;;;;12.20;nan;-24157.66;5030058;28;20217;-69
2023/03/31 07:41:18;;;;;;;9.63;5.80;;;;;;;11.75;nan;-24145.13;5029140;28;20179;-72
2023/03/31 07:43:45;;;;;;;14.27;5.82;;;;;;;12.36;nan;-24162.28;5030561;28;20576;-78
2023/03/31 07:46:22;;;;;;;10.15;5.20;;;;;;;12.44;nan;-24164.25;5028883;28;20675;-73
2023/03/31 07:48:48;;;;;;;7.53;4.70;;;;;;;13.55;nan;-24195.19;5023480;28;20181;-71
2023/03/31 07:51:18;;;;;;;5.82;3.88;;;;;;;14.05;nan;-24209.09;5030747;28;20265;-70
2023/03/31 07:53:44;;;;;;;5.97;4.03;;;;;;;14.57;nan;-24223.66;5031070;28;20186;-73
2023/03/31 07:56:09;;;;;;;7.22;4.20;;;;;;;15.03;nan;-24236.44;5029082;28;20791;-73
2023/03/31 07:58:35;;;;;;;5.55;3.85;;;;;;;15.53;nan;-24250.16;5029887;28;20195;-71
2023/03/31 08:01:01;;;;;;;6.07;3.95;;;;;;;15.53;nan;-24250.16;5029803;28;20195;-75
2023/03/31 08:03:27;;;;;;;6.65;4.00;;;;;;;15.52;nan;-24249.88;5030922;28;20187;-71
2023/03/31 08:05:52;;;;;;;7.93;4.05;;;;;;;15.68;nan;-24254.34;5030449;28;20543;-76
2023/03/31 08:08:18;;;;;;;9.85;4.32;;;;;;;15.46;nan;-24248.19;5031217;28;20208;-72
2023/03/31 08:10:44;;;;;;;9.30;4.43;;;;;;;15.73;nan;-24255.63;5029944;28;20179;-74
2023/03/31 08:13:09;;;;;;;9.45;3.55;;;;;;;15.67;nan;-24254.06;5030611;28;20194;-71
2023/03/31 08:15:34;;;;;;;5.53;3.83;;;;;;;15.42;nan;-24247.22;5030783;28;20533;-72
2023/03/31 08:18:00;;;;;;;12.63;4.10;;;;;;;15.94;nan;-24261.50;5029944;28;20235;-72
2023/03/31 08:20:25;;;;;;;9.43;4.20;;;;;;;16.28;nan;-24271.00;5029945;28;20201;-71
2023/03/31 08:22:51;;;;;;;7.45;3.78;;;;;;;16.45;nan;-24275.47;5030750;28;20669;-73
2023/03/31 08:25:17;;;;;;;4.97;3.40;;;;;;;16.50;nan;-24276.88;5029135;28;20183;-72
2023/03/31 08:27:42;;;;;;;8.82;3.95;;;;;;;16.93;nan;-24288.75;5030429;28;20642;-72
2023/03/31 08:30:10;;;;;;;6.32;3.50;;;;;;;16.83;nan;-24285.97;5029980;28;20187;-74
2023/03/31 08:32:35;;;;;;;9.70;3.28;;;;;;;17.46;nan;-24303.56;5030186;28;20189;-72
2023/03/31 08:35:01;;;;;;;6.88;3.05;;;;;;;17.23;nan;-24297.28;5029994;28;20175;-73
2023/03/31 08:37:27;;;;;;;5.80;3.50;;;;;;;16.52;nan;-24277.44;5030093;28;20550;-70
2023/03/31 08:39:54;;;;;;;7.47;3.55;;;;;;;16.99;nan;-24290.56;5029069;28;20294;-72
2023/03/31 08:42:49;;;;;;;5.85;3.42;;;;;;;17.12;nan;-24294.06;5028723;28;20267;-75
2023/03/31 08:45:30;;;;;;;5.85;3.55;;;;;;;17.44;nan;-24303.00;5028099;28;20211;-73
2023/03/31 08:48:24;;;;;;;8.40;4.18;;;;;;;18.04;nan;-24319.59;5029441;28;20183;-72
2023/03/31 08:50:55;;;;;;;10.23;4.15;;;;;;;18.43;nan;-24330.19;5022236;28;20282;-73
2023/03/31 08:53:30;;;;;;;5.82;3.45;;;;;;;18.49;nan;-24332.00;5027995;28;20633;-74
2023/03/31 08:55:58;;;;;;;5.47;3.20;;;;;;;18.47;nan;-24331.44;5029530;28;20254;-76
2023/03/31 08:58:39;;;;;;;5.50;3.30;;;;;;;17.99;nan;-24318.19;5029336;28;20214;-75
2023/03/31 09:01:31;;;;;;;4.38;2.60;;;;;;;18.38;nan;-24328.94;5029735;28;20569;-73
2023/03/31 09:04:16;;;;;;;6.05;3.17;;;;;;;18.22;nan;-24324.34;5027253;28;20180;-74
2023/03/31 09:07:01;;;;;;;4.03;2.55;;;;;;;18.23;nan;-24324.59;5029439;28;20183;-74
2023/03/31 09:09:38;;;;;;;4.63;3.00;;;;;;;18.37;nan;-24328.66;5033517;28;20179;-73
2023/03/31 09:12:10;;;;;;;4.20;2.72;;;;;;;18.15;nan;-24322.53;5033881;28;20183;-75
2023/03/31 09:14:41;;;;;;;5.95;3.00;;;;;;;18.11;nan;-24321.41;5034043;28;20244;-74
2023/03/31 09:17:17;;;;;;;4.25;2.60;;;;;;;18.42;nan;-24329.91;5034786;28;20175;-73
2023/03/31 09:20:00;;;;;;;4.60;2.78;;;;;;;18.46;nan;-24331.00;5033851;28;20215;-72
2023/03/31 09:22:31;;;;;;;15.45;3.05;;;;;;;18.97;nan;-24345.09;5030676;28;20180;-72
2023/03/31 09:25:25;;;;;;;5.40;2.83;;;;;;;18.72;nan;-24338.13;5034141;28;20183;-74
2023/03/31 09:27:54;;;;;;;2.35;1.95;;;;;;;18.80;nan;-24340.50;5031067;28;20195;-74
2023/03/31 09:30:32;;;;;;;4.07;2.10;;;;;;;18.91;nan;-24343.41;5037179;28;20184;-73
2023/03/31 09:33:13;;;;;;;4.07;2.45;;;;;;;18.96;nan;-24344.81;5019147;28;20179;-75
2023/03/31 09:35:40;;;;;;;3.80;2.03;;;;;;;18.81;nan;-24340.78;5035045;28;20587;-74
2023/03/31 09:38:05;;;;;;;3.38;2.40;;;;;;;18.39;nan;-24329.22;5035491;28;20268;-71
2023/03/31 09:40:31;;;;;;;3.28;2.05;;;;;;;18.70;nan;-24337.56;5032739;28;20209;-73
2023/03/31 09:43:03;;;;;;;5.65;2.70;;;;;;;18.35;nan;-24327.94;5033177;28;20724;-73
2023/03/31 09:45:30;;;;;;;5.63;2.88;;;;;;;18.04;nan;-24319.59;5032705;28;20176;-72
2023/03/31 09:48:05;;;;;;;4.72;2.47;;;;;;;18.46;nan;-24331.16;5032961;28;20182;-73
2023/03/31 09:50:36;;;;;;;5.70;2.97;;;;;;;18.51;nan;-24332.56;5031514;28;20236;-71
2023/03/31 09:53:10;;;;;;;3.97;2.40;;;;;;;18.80;nan;-24340.34;5030437;28;20175;-73
2023/03/31 09:55:55;;;;;;;3.60;2.28;;;;;;;19.22;nan;-24352.03;5031599;28;20313;-74
2023/03/31 09:58:23;;;;;;;4.82;2.30;;;;;;;19.12;nan;-24349.13;5030135;28;20584;-74
2023/03/31 10:01:01;;;;;;;9.25;3.00;;;;;;;19.10;nan;-24348.69;5031593;28;20538;-74
2023/03/31 10:03:28;;;;;;;5.38;3.20;;;;;;;19.23;nan;-24352.31;5029367;28;20167;-70
2023/03/31 10:05:55;;;;;;;8.48;3.20;;;;;;;19.08;nan;-24348.16;5030005;28;20172;-72
2023/03/31 10:08:30;;;;;;;5.35;3.17;;;;;;;19.14;nan;-24349.69;5031387;28;20252;-74
2023/03/31 10:11:16;;;;;;;5.45;2.90;;;;;;;19.50;nan;-24359.56;5029414;28;20205;-73
2023/03/31 10:14:14;;;;;;;4.05;2.78;;;;;;;19.55;nan;-24360.94;5030965;28;20233;-72
2023/03/31 10:17:03;;;;;;;2.80;2.25;;;;;;;19.86;nan;-24369.56;4995666;28;20212;-74
2023/03/31 10:19:35;;;;;;;4.57;2.58;;;;;;;20.16;nan;-24377.91;5031569;28;20223;-74
2023/03/31 10:22:13;;;;;;;4.72;2.55;;;;;;;20.08;nan;-24375.53;5033637;28;20569;-71
2023/03/31 10:24:42;;;;;;;6.53;3.05;;;;;;;20.16;nan;-24377.75;5031961;28;20191;-69
2023/03/31 10:27:29;;;;;;;3.70;2.50;;;;;;;20.40;nan;-24384.28;5034422;28;20191;-73
2023/03/31 10:30:04;;;;;;;5.53;3.05;;;;;;;20.40;nan;-24384.44;5033552;28;20557;-70
2023/03/31 10:32:41;;;;;;;4.88;2.85;;;;;;;20.73;nan;-24393.59;5033272;28;20167;-72
2023/03/31 10:35:28;;;;;;;6.00;2.90;;;;;;;20.98;nan;-24400.25;5033147;28;20187;-72
2023/03/31 10:37:57;;;;;;;5.70;3.08;;;;;;;21.44;nan;-24413.00;5033038;28;20180;-69
2023/03/31 10:40:25;;;;;;;4.10;2.95;;;;;;;21.46;nan;-24413.44;5033520;28;20221;-66
2023/03/31 10:43:19;;;;;;;5.15;3.03;;;;;;;21.27;nan;-24408.28;5030957;28;20186;-69
2023/03/31 10:45:50;;;;;;;4.25;3.00;;;;;;;21.39;nan;-24411.63;5032407;28;20187;-74
2023/03/31 10:48:22;;;;;;;4.40;2.45;;;;;;;21.41;nan;-24412.19;5032463;28;20255;-66
2023/03/31 10:50:48;;;;;;;7.93;3.08;;;;;;;21.62;nan;-24417.72;5032656;28;20238;-67
2023/03/31 10:53:15;;;;;;;3.90;2.55;;;;;;;21.54;nan;-24415.66;5032062;28;20639;-64
2023/03/31 10:56:11;;;;;;;7.00;2.92;;;;;;;21.59;nan;-24417.03;5031759;28;20254;-63
2023/03/31 10:58:36;;;;;;;5.28;2.92;;;;;;;21.81;nan;-24422.97;5031778;28;20250;-62
2023/03/31 11:01:33;;;;;;;7.47;3.60;;;;;;;21.46;nan;-24413.44;5031290;28;20655;-73
2023/03/31 11:04:08;;;;;;;6.82;3.33;;;;;;;21.09;nan;-24403.44;5031942;28;20544;-68
2023/03/31 11:06:56;;;;;;;4.35;2.78;;;;;;;21.01;nan;-24401.22;5031939;28;20175;-70
2023/03/31 11:09:43;;;;;;;5.93;3.13;;;;;;;21.22;nan;-24406.78;5031955;28;20278;-67
2023/03/31 11:12:27;;;;;;;4.35;3.10;;;;;;;20.73;nan;-24393.59;5032161;28;20203;-76
2023/03/31 11:14:59;;;;;;;7.75;3.33;;;;;;;20.95;nan;-24399.56;5032212;28;20210;-68
2023/03/31 11:17:53;;;;;;;4.57;2.92;;;;;;;20.57;nan;-24389.00;5031725;28;20163;-69
2023/03/31 11:20:34;;;;;;;4.72;3.10;;;;;;;20.62;nan;-24390.41;5031924;28;20234;-67
2023/03/31 11:23:41;;;;;;;5.82;3.00;;;;;;;21.11;nan;-24403.84;5032025;28;20221;-69
2023/03/31 11:26:13;;;;;;;5.97;2.80;;;;;;;20.90;nan;-24398.16;5031879;28;20174;-74
2023/03/31 11:29:03;;;;;;;7.28;3.15;;;;;;;21.84;nan;-24423.94;5031734;28;20177;-68
2023/03/31 11:31:41;;;;;;;10.85;3.15;;;;;;;21.72;nan;-24420.63;5032287;28;20178;-67
2023/03/31 11:34:18;;;;;;;4.35;3.00;;;;;;;22.20;nan;-24433.66;5031655;28;20614;-69
2023/03/31 11:37:03;;;;;;;6.53;2.97;;;;;;;22.07;nan;-24430.19;4905830;28;21371;-68
2023/03/31 11:39:36;;;;;;;4.75;2.78;;;;;;;21.71;nan;-24420.22;4511230;28;21088;-65
2023/03/31 11:42:12;;;;;;;5.40;3.10;;;;;;;21.40;nan;-24411.75;4540546;28;20815;-70
2023/03/31 11:44:43;;;;;;;4.38;2.58;;;;;;;21.82;nan;-24423.25;5031104;28;20246;-65
2023/03/31 11:47:15;;;;;;;6.30;2.88;;;;;;;21.55;nan;-24415.91;5031502;28;20172;-61
2023/03/31 11:50:06;;;;;;;6.13;2.65;;;;;;;21.05;nan;-24402.19;5031116;28;20227;-63
2023/03/31 11:52:40;;;;;;;3.65;2.60;;;;;;;21.68;nan;-24419.53;5031182;28;20659;-63
2023/03/31 11:55:20;;;;;;;4.32;2.70;;;;;;;21.59;nan;-24417.03;5030352;28;20185;-75
2023/03/31 11:58:00;;;;;;;6.13;3.15;;;;;;;21.59;nan;-24417.16;5029763;28;20190;-65
2023/03/31 12:00:35;;;;;;;5.70;2.78;;;;;;;21.53;nan;-24415.38;5029218;28;20191;-66
2023/03/31 12:03:22;;;;;;;3.60;2.72;;;;;;;22.02;nan;-24428.94;5031063;28;20190;-72
2023/03/31 12:05:52;;;;;;;2.95;2.38;;;;;;;22.08;nan;-24430.31;5031274;28;20167;-72
2023/03/31 12:08:28;;;;;;;5.15;3.00;;;;;;;22.15;nan;-24432.41;5031103;28;20646;-74
2023/03/31 12:11:01;;;;;;;3.10;2.58;;;;;;;22.23;nan;-24434.47;5031212;28;20218;-72
2023/03/31 12:13:45;;;;;;;3.00;2.42;;;;;;;22.20;nan;-24433.78;5031034;28;20471;-73
2023/03/31 12:16:37;;;;;;;5.50;2.95;;;;;;;21.96;nan;-24427.28;5030831;28;20715;-71